Time;durP1;ratioP1;P1;durP2;ratioP2;P2;SDS_P1;SDS_P2;PMS_P1;PMS_P2;Temp;Humidity;BMP_temperature;BMP_pressure;BME280_temperature;BME280_humidity;BME280_pressure;Samples;Min_cycle;Max_cycle;Signal;HPM_P1;HPM_P2
2023/06/17 00:01:20;;;;;;;8.13;5.47;;;25.70;71.10;;;;;;5015642;28;20141;-68
2023/06/17 00:03:45;;;;;;;10.68;5.80;;;25.70;71.00;;;;;;5012707;28;20412;-68
2023/06/17 00:06:11;;;;;;;8.68;5.43;;;25.80;71.30;;;;;;5015633;28;20045;-68
2023/06/17 00:08:37;;;;;;;9.90;5.65;;;25.90;71.30;;;;;;5013961;28;20124;-68
2023/06/17 00:11:03;;;;;;;8.18;5.10;;;25.80;71.20;;;;;;5013286;28;20049;-69
2023/06/17 00:13:29;;;;;;;9.70;5.50;;;25.80;71.40;;;;;;5025456;28;20407;-69
2023/06/17 00:15:56;;;;;;;9.57;5.45;;;25.80;71.30;;;;;;5008670;28;20121;-68
2023/06/17 00:18:26;;;;;;;9.23;5.55;;;25.80;71.50;;;;;;5013096;28;20056;-61
2023/06/17 00:20:53;;;;;;;7.38;5.30;;;26.00;71.80;;;;;;5014853;28;20545;-65
2023/06/17 00:23:23;;;;;;;9.68;5.63;;;26.00;71.50;;;;;;5015169;28;20385;-67
2023/06/17 00:25:49;;;;;;;9.27;5.70;;;25.80;71.40;;;;;;5010282;28;20042;-70
2023/06/17 00:28:15;;;;;;;8.85;5.93;;;25.80;71.20;;;;;;5011748;28;20100;-67
2023/06/17 00:30:41;;;;;;;9.13;5.47;;;25.70;71.40;;;;;;5012759;28;20052;-65
2023/06/17 00:33:07;;;;;;;8.55;5.63;;;25.90;71.40;;;;;;5013723;28;20117;-64
2023/06/17 00:35:34;;;;;;;9.65;5.55;;;25.70;71.30;;;;;;5012941;28;20050;-67
2023/06/17 00:37:59;;;;;;;8.80;5.55;;;25.70;71.30;;;;;;5014896;28;20042;-69
2023/06/17 00:40:25;;;;;;;8.38;5.40;;;25.80;71.30;;;;;;5012988;28;20411;-68
2023/06/17 00:42:51;;;;;;;7.25;5.32;;;25.80;71.50;;;;;;5014421;28;20042;-68
2023/06/17 00:45:17;;;;;;;9.77;5.90;;;25.80;71.30;;;;;;5013028;28;20061;-68
2023/06/17 00:47:43;;;;;;;7.85;5.68;;;26.00;71.20;;;;;;5013897;28;20157;-69
2023/06/17 00:50:09;;;;;;;7.88;5.60;;;25.70;71.40;;;;;;5012260;28;20041;-69
2023/06/17 00:52:35;;;;;;;9.02;6.47;;;25.80;71.30;;;;;;5011618;28;20030;-69
2023/06/17 00:55:01;;;;;;;8.63;6.07;;;25.70;71.30;;;;;;5013488;28;20076;-69
2023/06/17 00:57:28;;;;;;;9.27;5.80;;;25.90;71.40;;;;;;5012070;28;20046;-61
2023/06/17 00:59:54;;;;;;;8.00;5.43;;;25.60;71.50;;;;;;5006779;28;20046;-65
2023/06/17 01:02:25;;;;;;;8.63;6.30;;;25.70;71.40;;;;;;5011545;28;20044;-61
2023/06/17 01:04:51;;;;;;;10.02;6.25;;;25.90;71.80;;;;;;5014593;28;20054;-69
2023/06/17 01:07:35;;;;;;;10.55;6.78;;;25.80;71.40;;;;;;5013123;28;20458;-68
2023/06/17 01:10:22;;;;;;;8.90;6.18;;;25.60;70.10;;;;;;5011000;28;20054;-69
2023/06/17 01:12:48;;;;;;;9.75;6.72;;;26.00;75.30;;;;;;4994504;28;20046;-69
2023/06/17 01:15:16;;;;;;;8.95;6.40;;;25.80;71.50;;;;;;4993506;28;20129;-66
2023/06/17 01:17:43;;;;;;;12.65;6.95;;;25.40;71.40;;;;;;5005839;28;20089;-65
2023/06/17 01:20:12;;;;;;;11.00;6.55;;;25.80;71.90;;;;;;5009877;28;20112;-62
2023/06/17 01:22:38;;;;;;;10.05;5.85;;;25.60;71.20;;;;;;5011024;28;20472;-64
2023/06/17 01:25:04;;;;;;;8.13;6.03;;;25.70;71.60;;;;;;4993421;28;20081;-61
2023/06/17 01:27:33;;;;;;;10.45;6.65;;;25.80;71.40;;;;;;5004644;28;20045;-61
2023/06/17 01:30:00;;;;;;;10.75;6.78;;;25.90;71.90;;;;;;5011682;28;20049;-65
2023/06/17 01:32:26;;;;;;;8.75;6.38;;;25.70;71.70;;;;;;5012056;28;20500;-66
2023/06/17 01:35:01;;;;;;;9.48;6.47;;;25.50;72.20;;;;;;5013213;28;20085;-64
2023/06/17 01:37:50;;;;;;;9.88;5.93;;;25.80;70.40;;;;;;5006523;28;20488;-61
2023/06/17 01:40:19;;;;;;;8.73;5.60;;;25.60;72.00;;;;;;5005479;28;20424;-61
2023/06/17 01:42:47;;;;;;;10.40;6.45;;;25.60;72.00;;;;;;5013580;28;20112;-68
2023/06/17 01:45:12;;;;;;;11.05;6.22;;;25.80;72.10;;;;;;5012166;28;20104;-63
2023/06/17 01:47:38;;;;;;;8.35;5.70;;;25.70;71.40;;;;;;5006662;28;20050;-65
2023/06/17 01:50:05;;;;;;;9.90;6.57;;;25.60;71.80;;;;;;5010796;28;20057;-66
2023/06/17 01:52:31;;;;;;;10.00;6.20;;;25.70;71.70;;;;;;5013421;28;20038;-66
2023/06/17 01:54:57;;;;;;;9.05;6.15;;;25.70;71.90;;;;;;5007103;28;20042;-65
2023/06/17 01:57:23;;;;;;;9.75;5.82;;;25.50;71.60;;;;;;5011907;28;20174;-61
2023/06/17 01:59:48;;;;;;;9.88;6.47;;;25.80;71.90;;;;;;5011164;28;20033;-68
2023/06/17 02:02:14;;;;;;;10.15;6.85;;;25.80;71.80;;;;;;5009536;28;20499;-68
2023/06/17 02:04:41;;;;;;;11.48;6.95;;;25.60;71.80;;;;;;5013506;28;20132;-69
2023/06/17 02:07:07;;;;;;;9.60;6.20;;;25.60;71.90;;;;;;5013209;28;20049;-68
2023/06/17 02:09:33;;;;;;;9.82;6.43;;;25.60;71.90;;;;;;5013053;28;20472;-68
2023/06/17 02:11:58;;;;;;;8.23;6.40;;;25.70;71.90;;;;;;5003963;28;20077;-68
2023/06/17 02:14:24;;;;;;;9.60;6.57;;;25.30;71.70;;;;;;5002237;28;20041;-68
2023/06/17 02:16:52;;;;;;;10.30;6.78;;;25.70;72.00;;;;;;5012044;28;20046;-61
2023/06/17 02:19:18;;;;;;;10.65;6.57;;;25.90;72.20;;;;;;5013285;28;20176;-64
2023/06/17 02:21:43;;;;;;;9.73;6.53;;;25.70;72.00;;;;;;5011181;28;20451;-61
2023/06/17 02:24:10;;;;;;;10.05;6.63;;;25.60;72.00;;;;;;5013040;28;20093;-65
2023/06/17 02:26:36;;;;;;;10.75;7.15;;;25.60;72.10;;;;;;5011133;28;20503;-65
2023/06/17 02:29:03;;;;;;;10.38;6.57;;;25.60;72.10;;;;;;5011841;28;20042;-67
2023/06/17 02:31:28;;;;;;;9.38;6.60;;;25.80;72.20;;;;;;5010315;28;20050;-65
2023/06/17 02:33:55;;;;;;;8.40;6.35;;;25.50;71.70;;;;;;4993414;28;20157;-61
2023/06/17 02:36:21;;;;;;;9.30;6.70;;;25.80;72.40;;;;;;4993227;28;20042;-61
2023/06/17 02:38:47;;;;;;;8.18;6.50;;;25.80;72.10;;;;;;4998773;28;20056;-65
2023/06/17 02:41:13;;;;;;;11.35;7.38;;;25.60;75.70;;;;;;5010990;28;20128;-68
2023/06/17 02:43:39;;;;;;;9.30;7.03;;;25.60;72.20;;;;;;5011054;28;20088;-60
2023/06/17 02:46:04;;;;;;;13.88;7.20;;;25.90;72.30;;;;;;4994105;28;20050;-62
2023/06/17 02:48:30;;;;;;;9.80;6.80;;;25.80;72.20;;;;;;5007782;28;20046;-65
2023/06/17 02:50:56;;;;;;;12.52;7.25;;;25.80;72.30;;;;;;5010281;28;20054;-64
2023/06/17 02:53:22;;;;;;;9.85;6.85;;;25.70;72.20;;;;;;5011311;28;20403;-64
2023/06/17 02:55:48;;;;;;;11.02;7.13;;;25.70;72.30;;;;;;5013019;28;20041;-61
2023/06/17 02:58:15;;;;;;;9.55;6.93;;;25.60;72.30;;;;;;5012066;28;20046;-65
2023/06/17 03:00:45;;;;;;;11.30;7.15;;;25.80;72.60;;;;;;5012773;28;20056;-65
2023/06/17 03:03:10;;;;;;;10.48;7.03;;;25.60;72.50;;;;;;5007751;28;20137;-61
2023/06/17 03:05:41;;;;;;;10.80;7.00;;;25.60;72.20;;;;;;5006402;28;20120;-63
2023/06/17 03:08:07;;;;;;;9.23;6.72;;;25.70;71.40;;;;;;5011791;28;20460;-67
2023/06/17 03:10:33;;;;;;;10.73;7.03;;;25.70;72.30;;;;;;5014449;28;20128;-61
2023/06/17 03:13:00;;;;;;;9.82;7.13;;;25.70;72.50;;;;;;5014409;28;20515;-65
2023/06/17 03:15:26;;;;;;;10.25;6.85;;;25.70;72.50;;;;;;5015095;28;20044;-63
2023/06/17 03:17:52;;;;;;;8.75;6.60;;;25.60;72.40;;;;;;4997548;28;20061;-65
2023/06/17 03:20:18;;;;;;;9.85;6.70;;;25.70;72.40;;;;;;4996852;28;20440;-64
2023/06/17 03:22:44;;;;;;;9.23;7.22;;;25.70;72.50;;;;;;5004018;28;20061;-66
2023/06/17 03:25:10;;;;;;;9.93;6.93;;;25.50;72.30;;;;;;5016098;28;20409;-64
2023/06/17 03:27:36;;;;;;;9.52;7.47;;;25.60;72.60;;;;;;5016455;28;20049;-62
2023/06/17 03:30:03;;;;;;;9.48;7.07;;;25.90;72.60;;;;;;5014377;28;20046;-66
2023/06/17 03:32:28;;;;;;;9.75;7.53;;;25.50;72.20;;;;;;5014618;28;20034;-65
2023/06/17 03:34:54;;;;;;;11.13;7.45;;;25.80;72.60;;;;;;5013253;28;20042;-66
2023/06/17 03:37:20;;;;;;;11.18;7.28;;;25.60;72.50;;;;;;4996379;28;20108;-61
2023/06/17 03:39:46;;;;;;;10.02;7.32;;;25.50;72.40;;;;;;4996323;28;20050;-64
2023/06/17 03:42:16;;;;;;;9.45;7.43;;;25.60;72.40;;;;;;5009034;28;20041;-60
2023/06/17 03:44:42;;;;;;;9.50;7.40;;;25.60;76.20;;;;;;5013571;28;20460;-61
2023/06/17 03:47:08;;;;;;;11.10;8.50;;;25.50;71.90;;;;;;5015163;28;20132;-65
2023/06/17 03:49:34;;;;;;;10.88;7.38;;;25.50;72.40;;;;;;5015737;28;20042;-60
2023/06/17 03:52:00;;;;;;;10.82;7.53;;;25.70;72.70;;;;;;5014148;28;20046;-67
2023/06/17 03:54:26;;;;;;;10.63;7.75;;;26.00;72.80;;;;;;5009639;28;20049;-65
2023/06/17 03:56:51;;;;;;;10.05;7.55;;;25.50;72.50;;;;;;5015478;28;20062;-63
2023/06/17 03:59:17;;;;;;;9.25;7.30;;;26.00;76.70;;;;;;5015793;28;20050;-66
2023/06/17 04:01:43;;;;;;;10.60;7.78;;;25.60;72.60;;;;;;5014575;28;20033;-63
2023/06/17 04:04:09;;;;;;;9.43;7.45;;;25.70;72.80;;;;;;5013819;28;20124;-64
2023/06/17 04:06:35;;;;;;;9.70;7.18;;;25.60;72.60;;;;;;5013126;28;20108;-64
2023/06/17 04:09:02;;;;;;;9.70;6.90;;;25.40;72.60;;;;;;5013635;28;20038;-66
2023/06/17 04:11:30;;;;;;;9.73;7.65;;;25.70;72.90;;;;;;4995726;28;20057;-63
2023/06/17 04:13:56;;;;;;;10.13;7.43;;;25.70;72.70;;;;;;4998815;28;20052;-61
2023/06/17 04:16:23;;;;;;;10.93;6.97;;;25.40;72.50;;;;;;4997859;28;20484;-63
2023/06/17 04:18:49;;;;;;;10.05;7.45;;;25.50;72.80;;;;;;4998143;28;20595;-65
2023/06/17 04:21:14;;;;;;;9.38;6.65;;;25.50;72.70;;;;;;5013892;28;20049;-62
2023/06/17 04:23:40;;;;;;;9.88;7.10;;;25.40;72.50;;;;;;5012975;28;20042;-60
2023/06/17 04:26:06;;;;;;;11.88;7.43;;;25.50;72.60;;;;;;4996301;28;20046;-65
2023/06/17 04:28:33;;;;;;;9.93;7.32;;;25.60;72.80;;;;;;4995803;28;20444;-66
2023/06/17 04:31:00;;;;;;;9.00;7.10;;;25.50;72.70;;;;;;4994213;28;20051;-65
2023/06/17 04:33:27;;;;;;;9.90;7.28;;;25.60;72.90;;;;;;5013695;28;20136;-66
2023/06/17 04:35:53;;;;;;;12.55;7.22;;;25.80;73.00;;;;;;5010609;28;20046;-66
2023/06/17 04:38:21;;;;;;;11.40;7.90;;;25.70;72.80;;;;;;5013831;28;20064;-61
2023/06/17 04:40:46;;;;;;;10.43;7.22;;;25.80;72.80;;;;;;5010758;28;20042;-61
2023/06/17 04:43:12;;;;;;;10.65;8.48;;;25.80;72.80;;;;;;4995946;28;20053;-66
2023/06/17 04:45:39;;;;;;;11.75;7.68;;;25.70;72.80;;;;;;5003967;28;20065;-62
2023/06/17 04:48:05;;;;;;;12.07;7.93;;;25.60;72.60;;;;;;5013687;28;20910;-63
2023/06/17 04:50:32;;;;;;;11.38;8.05;;;25.50;72.80;;;;;;5014585;28;20081;-66
2023/06/17 04:53:03;;;;;;;10.93;7.82;;;25.80;73.00;;;;;;5014161;28;20440;-65
2023/06/17 04:55:35;;;;;;;10.75;7.40;;;25.70;73.00;;;;;;5006718;28;20041;-62
2023/06/17 04:58:04;;;;;;;12.38;7.78;;;25.60;71.50;;;;;;4995892;28;20054;-66
2023/06/17 05:00:30;;;;;;;10.43;7.85;;;25.80;73.10;;;;;;5000211;28;20050;-61
2023/06/17 05:02:57;;;;;;;9.30;7.13;;;25.60;72.80;;;;;;5014294;28;20082;-66
2023/06/17 05:05:23;;;;;;;8.73;6.72;;;25.50;72.80;;;;;;5012031;28;20049;-71
2023/06/17 05:07:49;;;;;;;9.40;7.50;;;25.60;72.60;;;;;;5013486;28;20034;-71
2023/06/17 05:10:15;;;;;;;9.38;7.57;;;25.60;72.60;;;;;;5007854;28;20121;-71
2023/06/17 05:12:41;;;;;;;11.05;7.82;;;25.50;72.80;;;;;;4994571;28;20192;-71
2023/06/17 05:15:07;;;;;;;10.13;7.88;;;25.40;72.90;;;;;;4998711;28;20381;-65
2023/06/17 05:17:33;;;;;;;22.25;15.20;;;25.70;72.70;;;;;;5007164;28;20039;-71
2023/06/17 05:19:59;;;;;;;20.70;15.43;;;25.60;73.30;;;;;;5012380;28;20045;-66
2023/06/17 05:22:25;;;;;;;23.38;15.20;;;25.50;73.30;;;;;;5012322;28;20511;-71
2023/06/17 05:24:51;;;;;;;21.73;15.98;;;25.40;77.70;;;;;;5008551;28;20052;-70
2023/06/17 05:27:17;;;;;;;22.10;15.20;;;25.30;73.90;;;;;;5010966;28;20045;-75
2023/06/17 05:29:42;;;;;;;23.10;15.60;;;25.50;74.20;;;;;;5013711;28;20049;-70
2023/06/17 05:32:08;;;;;;;21.25;16.88;;;25.20;74.20;;;;;;5013310;28;20038;-72
2023/06/17 05:34:34;;;;;;;19.35;15.43;;;24.90;74.10;;;;;;5006547;28;20039;-68
2023/06/17 05:37:00;;;;;;;18.13;14.52;;;24.80;74.20;;;;;;5011373;28;20045;-69
2023/06/17 05:39:26;;;;;;;25.77;16.75;;;25.00;74.50;;;;;;5013855;28;20048;-67
2023/06/17 05:41:51;;;;;;;28.30;18.60;;;24.90;74.60;;;;;;5013535;28;20081;-71
2023/06/17 05:44:17;;;;;;;23.90;17.50;;;25.00;74.70;;;;;;5013732;28;20148;-68
2023/06/17 05:46:43;;;;;;;21.38;16.38;;;24.90;74.70;;;;;;5009315;28;20480;-71
2023/06/17 05:49:09;;;;;;;19.63;15.05;;;24.70;74.90;;;;;;5013045;28;20070;-72
2023/06/17 05:51:34;;;;;;;17.88;13.52;;;24.90;75.20;;;;;;5010013;28;20100;-62
2023/06/17 05:54:00;;;;;;;21.30;15.63;;;24.80;75.20;;;;;;5013538;28;20480;-70
2023/06/17 05:56:27;;;;;;;24.88;17.27;;;24.70;75.40;;;;;;5011055;28;20046;-70
2023/06/17 05:58:53;;;;;;;20.83;16.52;;;24.60;75.60;;;;;;5000146;28;20046;-64
2023/06/17 06:01:19;;;;;;;18.85;14.32;;;24.70;75.40;;;;;;4993946;28;20568;-67
2023/06/17 06:03:44;;;;;;;17.48;14.02;;;24.40;75.50;;;;;;4993893;28;20472;-71
2023/06/17 06:06:10;;;;;;;20.13;15.20;;;24.50;75.20;;;;;;4993273;28;20564;-73
2023/06/17 06:08:36;;;;;;;21.83;16.15;;;24.70;75.70;;;;;;5008783;28;20472;-70
2023/06/17 06:11:02;;;;;;;19.42;16.73;;;24.60;75.70;;;;;;5011216;28;20050;-62
2023/06/17 06:13:28;;;;;;;18.25;14.43;;;24.60;75.70;;;;;;5010564;28;20056;-78
2023/06/17 06:15:55;;;;;;;21.70;15.05;;;24.60;75.80;;;;;;4996235;28;20073;-77
2023/06/17 06:18:21;;;;;;;20.50;14.65;;;24.40;75.70;;;;;;5007892;28;20062;-77
2023/06/17 06:20:46;;;;;;;19.33;14.35;;;24.50;75.70;;;;;;5011988;28;20099;-76
2023/06/17 06:23:12;;;;;;;21.92;15.20;;;24.50;78.80;;;;;;4998041;28;20504;-72
2023/06/17 06:25:38;;;;;;;22.85;14.48;;;24.40;79.30;;;;;;4996387;28;20058;-72
2023/06/17 06:28:05;;;;;;;18.58;14.27;;;24.50;78.90;;;;;;5007859;28;20044;-61
2023/06/17 06:30:31;;;;;;;19.95;15.57;;;24.60;79.90;;;;;;5002867;28;20045;-66
2023/06/17 06:32:58;;;;;;;17.23;13.98;;;24.60;76.30;;;;;;5012136;28;20037;-69
2023/06/17 06:35:24;;;;;;;16.25;12.68;;;24.40;79.80;;;;;;5007054;28;20053;-77
2023/06/17 06:37:50;;;;;;;21.05;15.55;;;24.30;76.40;;;;;;5002495;28;20399;-76
2023/06/17 06:40:16;;;;;;;21.95;17.77;;;24.70;76.30;;;;;;5012339;28;20050;-77
2023/06/17 06:42:42;;;;;;;20.63;17.83;;;24.50;75.90;;;;;;5005077;28;20049;-77
2023/06/17 06:45:08;;;;;;;22.00;17.50;;;24.60;75.60;;;;;;4999373;28;20049;-76
2023/06/17 06:47:34;;;;;;;23.45;17.05;;;24.60;75.90;;;;;;5016737;28;20402;-76
2023/06/17 06:50:00;;;;;;;22.67;16.23;;;24.50;79.60;;;;;;5019153;28;20049;-77
2023/06/17 06:52:25;;;;;;;22.75;15.45;;;24.40;76.20;;;;;;5018527;28;20046;-76
2023/06/17 06:54:51;;;;;;;21.58;14.93;;;24.60;76.30;;;;;;5019075;28;20045;-77
2023/06/17 06:57:17;;;;;;;20.02;14.38;;;24.60;79.30;;;;;;5014267;28;20121;-72
2023/06/17 06:59:43;;;;;;;19.27;14.05;;;24.70;76.60;;;;;;5011377;28;20400;-76
2023/06/17 07:02:09;;;;;;;19.50;15.10;;;24.40;80.00;;;;;;4999007;28;20043;-77
2023/06/17 07:04:35;;;;;;;18.73;14.18;;;24.80;76.40;;;;;;4999156;28;20050;-71
2023/06/17 07:07:02;;;;;;;20.27;13.02;;;24.70;79.90;;;;;;4989671;28;20068;-75
2023/06/17 07:09:28;;;;;;;19.25;13.60;;;24.70;76.50;;;;;;5010160;28;20047;-76
2023/06/17 07:11:54;;;;;;;21.27;13.00;;;24.70;76.30;;;;;;5006511;28;20427;-78
2023/06/17 07:14:20;;;;;;;15.32;11.07;;;24.60;76.00;;;;;;5018821;28;20049;-72
2023/06/17 07:16:45;;;;;;;15.15;11.30;;;24.80;80.20;;;;;;5011746;28;20042;-64
2023/06/17 07:19:11;;;;;;;17.45;12.35;;;24.90;79.70;;;;;;5014174;28;20107;-61
2023/06/17 07:21:37;;;;;;;17.00;12.52;;;24.80;76.30;;;;;;5016819;28;20080;-64
2023/06/17 07:24:03;;;;;;;16.55;11.35;;;24.90;75.90;;;;;;5018631;28;20042;-74
2023/06/17 07:26:28;;;;;;;17.27;12.10;;;25.10;75.70;;;;;;5017713;28;20050;-70
2023/06/17 07:28:55;;;;;;;18.67;12.98;;;25.00;75.90;;;;;;5011905;28;20046;-64
2023/06/17 07:31:22;;;;;;;20.23;12.20;;;24.80;76.10;;;;;;5017727;28;20046;-61
2023/06/17 07:33:48;;;;;;;19.20;12.52;;;24.80;79.70;;;;;;5005363;28;20045;-62
2023/06/17 07:36:14;;;;;;;19.30;12.18;;;24.90;76.00;;;;;;5016222;28;20492;-61
2023/06/17 07:38:39;;;;;;;15.60;11.52;;;24.50;76.10;;;;;;5014252;28;20504;-60
2023/06/17 07:41:05;;;;;;;17.23;11.43;;;24.70;79.40;;;;;;5015914;28;20053;-68
2023/06/17 07:43:32;;;;;;;15.90;11.25;;;24.60;80.20;;;;;;5018293;28;20064;-72
2023/06/17 07:45:58;;;;;;;19.45;12.43;;;24.80;76.70;;;;;;5017925;28;20504;-71
2023/06/17 07:48:25;;;;;;;17.38;11.20;;;24.80;76.40;;;;;;5016238;28;20053;-70
2023/06/17 07:50:51;;;;;;;18.17;11.10;;;24.50;76.40;;;;;;5009048;28;20531;-73
2023/06/17 07:53:16;;;;;;;17.15;10.32;;;24.50;76.70;;;;;;5018363;28;20111;-75
2023/06/17 07:55:42;;;;;;;17.48;11.52;;;24.60;77.00;;;;;;5018284;28;20050;-77
2023/06/17 07:58:08;;;;;;;15.75;10.40;;;24.50;77.20;;;;;;5012568;28;20053;-71
2023/06/17 08:00:35;;;;;;;16.45;10.38;;;24.80;76.80;;;;;;5013345;28;20034;-70
2023/06/17 08:03:00;;;;;;;17.73;9.65;;;24.60;76.80;;;;;;5013626;28;20399;-73
2023/06/17 08:05:26;;;;;;;17.50;10.05;;;25.20;76.40;;;;;;5014783;28;20038;-64
2023/06/17 08:07:52;;;;;;;15.65;10.57;;;25.10;76.00;;;;;;5007735;28;20042;-63
2023/06/17 08:10:18;;;;;;;14.05;9.68;;;25.30;75.60;;;;;;5014978;28;20408;-62
2023/06/17 08:12:46;;;;;;;15.90;10.57;;;25.40;75.70;;;;;;5009872;28;20081;-62
2023/06/17 08:15:11;;;;;;;14.32;9.30;;;25.60;75.60;;;;;;5013532;28;20443;-63
2023/06/17 08:17:37;;;;;;;14.35;9.15;;;26.00;75.60;;;;;;5008928;28;20098;-64
2023/06/17 08:20:04;;;;;;;17.20;10.20;;;26.10;75.50;;;;;;5010944;28;20431;-61
2023/06/17 08:22:30;;;;;;;14.63;9.40;;;25.80;75.40;;;;;;5013352;28;20049;-74
2023/06/17 08:24:55;;;;;;;16.35;9.82;;;26.10;75.00;;;;;;5013290;28;20054;-76
2023/06/17 08:27:21;;;;;;;17.50;9.80;;;26.30;74.90;;;;;;5010843;28;20046;-83
2023/06/17 08:29:47;;;;;;;15.48;10.07;;;26.20;74.80;;;;;;5012921;28;20046;-68
2023/06/17 08:32:13;;;;;;;15.52;9.25;;;26.20;74.50;;;;;;5013858;28;20042;-70
2023/06/17 08:34:39;;;;;;;12.75;9.27;;;26.20;74.30;;;;;;5014263;28;20049;-83
2023/06/17 08:37:05;;;;;;;13.95;9.57;;;26.30;74.30;;;;;;5013496;28;20183;-81
2023/06/17 08:39:31;;;;;;;16.45;9.40;;;26.40;74.00;;;;;;5010844;28;20050;-80
2023/06/17 08:41:57;;;;;;;14.90;9.30;;;26.40;74.30;;;;;;5005003;28;20166;-79
2023/06/17 08:44:24;;;;;;;15.82;9.75;;;26.70;74.20;;;;;;5008921;28;20129;-84
2023/06/17 08:46:51;;;;;;;14.00;9.85;;;26.60;74.40;;;;;;5013103;28;20058;-60
2023/06/17 08:49:17;;;;;;;14.77;9.52;;;26.70;74.20;;;;;;5009775;28;20391;-64
2023/06/17 08:51:43;;;;;;;15.07;9.65;;;26.70;73.90;;;;;;4995978;28;20042;-73
2023/06/17 08:54:09;;;;;;;13.75;10.20;;;26.70;73.70;;;;;;5011498;28;20113;-61
2023/06/17 08:56:35;;;;;;;15.48;10.25;;;26.70;73.60;;;;;;5010370;28;20777;-78
2023/06/17 08:59:01;;;;;;;29.75;11.10;;;26.60;73.40;;;;;;5004552;28;20042;-78
2023/06/17 09:01:27;;;;;;;25.90;11.65;;;26.60;73.40;;;;;;5010180;28;20179;-77
2023/06/17 09:03:53;;;;;;;14.77;10.85;;;26.90;73.90;;;;;;5014162;28;20056;-78
2023/06/17 09:06:25;;;;;;;17.05;10.55;;;26.60;73.80;;;;;;5013578;28;20243;-75
2023/06/17 09:08:51;;;;;;;15.38;10.38;;;26.50;73.90;;;;;;5012356;28;20395;-77
2023/06/17 09:11:20;;;;;;;14.65;9.90;;;26.90;73.90;;;;;;5004174;28;20048;-76
2023/06/17 09:13:50;;;;;;;17.35;10.52;;;26.80;74.00;;;;;;5012303;28;20860;-78
2023/06/17 09:16:18;;;;;;;14.95;9.52;;;26.80;73.80;;;;;;5001990;28;20056;-84
2023/06/17 09:18:44;;;;;;;17.92;10.02;;;26.50;73.60;;;;;;5000633;28;20042;-81
2023/06/17 09:21:13;;;;;;;15.38;9.23;;;26.70;73.40;;;;;;5009003;28;20471;-84
2023/06/17 09:23:39;;;;;;;14.07;9.30;;;26.90;73.80;;;;;;4995837;28;20042;-84
2023/06/17 09:26:05;;;;;;;14.02;9.57;;;26.60;73.40;;;;;;5013660;28;20444;-78
2023/06/17 09:28:31;;;;;;;18.02;10.27;;;26.70;73.30;;;;;;5012274;28;20618;-77
2023/06/17 09:30:59;;;;;;;13.48;10.13;;;26.50;73.40;;;;;;5012679;28;20045;-61
2023/06/17 09:33:25;;;;;;;16.60;10.40;;;26.60;73.60;;;;;;4997927;28;20137;-80
2023/06/17 09:36:01;;;;;;;14.27;9.32;;;26.60;73.80;;;;;;4994079;28;20039;-66
2023/06/17 09:38:28;;;;;;;15.35;9.77;;;26.70;74.30;;;;;;4993950;28;20101;-64
2023/06/17 09:40:54;;;;;;;13.48;9.73;;;26.80;73.90;;;;;;4993294;28;20057;-65
2023/06/17 09:43:23;;;;;;;14.95;9.63;;;26.80;73.70;;;;;;4993904;28;20046;-68
2023/06/17 09:45:54;;;;;;;18.90;10.45;;;26.80;74.00;;;;;;4993376;28;20124;-72
2023/06/17 09:48:24;;;;;;;12.02;9.05;;;26.80;73.90;;;;;;5010289;28;20129;-71
2023/06/17 09:50:55;;;;;;;14.50;9.73;;;27.00;73.90;;;;;;4996206;28;20085;-72
2023/06/17 09:53:27;;;;;;;12.65;9.20;;;27.10;73.90;;;;;;5011140;28;20100;-68
2023/06/17 09:55:56;;;;;;;13.77;9.33;;;26.90;72.40;;;;;;5011003;28;20590;-74
2023/06/17 09:58:32;;;;;;;14.63;9.18;;;27.20;73.90;;;;;;5012799;28;20544;-73
2023/06/17 10:01:00;;;;;;;15.50;9.57;;;26.90;73.80;;;;;;5011832;28;20050;-67
2023/06/17 10:03:28;;;;;;;14.57;9.95;;;26.90;73.80;;;;;;5011640;28;20065;-71
2023/06/17 10:06:03;;;;;;;14.93;9.27;;;26.80;73.40;;;;;;5011574;28;20128;-73
2023/06/17 10:08:30;;;;;;;12.20;9.35;;;27.00;73.90;;;;;;5008417;28;20047;-73
2023/06/17 10:10:57;;;;;;;14.07;10.43;;;27.00;73.30;;;;;;4993018;28;20052;-72
2023/06/17 10:13:23;;;;;;;16.60;11.20;;;26.90;73.40;;;;;;5009171;28;20412;-71
2023/06/17 10:15:49;;;;;;;15.23;9.55;;;27.10;73.30;;;;;;4991950;28;20100;-74
2023/06/17 10:18:15;;;;;;;14.98;9.18;;;27.00;73.30;;;;;;4991884;28;20053;-67
2023/06/17 10:20:41;;;;;;;16.75;10.05;;;27.40;73.60;;;;;;4991140;28;20181;-72
2023/06/17 10:23:07;;;;;;;12.95;9.40;;;27.00;73.10;;;;;;4994065;28;20101;-74
2023/06/17 10:25:33;;;;;;;19.65;10.02;;;27.10;73.30;;;;;;4992648;28;20069;-67
2023/06/17 10:28:02;;;;;;;14.48;9.90;;;27.30;73.50;;;;;;5017369;28;20396;-75
2023/06/17 10:30:28;;;;;;;19.63;11.13;;;27.20;73.50;;;;;;4998935;28;20053;-78
2023/06/17 10:32:58;;;;;;;15.90;10.75;;;27.20;73.20;;;;;;4997453;28;20458;-80
2023/06/17 10:35:43;;;;;;;15.88;10.95;;;27.10;73.80;;;;;;5010355;28;20519;-70
2023/06/17 10:38:09;;;;;;;18.92;10.85;;;27.20;72.60;;;;;;5009103;28;20077;-74
2023/06/17 10:40:40;;;;;;;18.45;10.57;;;27.20;73.60;;;;;;5007261;28;20520;-72
2023/06/17 10:43:06;;;;;;;14.43;10.25;;;27.30;73.90;;;;;;5012787;28;20108;-73
2023/06/17 10:45:46;;;;;;;17.58;11.68;;;27.20;73.80;;;;;;5012125;28;20069;-71
2023/06/17 10:48:16;;;;;;;19.05;10.95;;;27.30;72.60;;;;;;5001853;28;20412;-67
2023/06/17 10:50:42;;;;;;;19.13;11.20;;;27.20;72.60;;;;;;4992451;28;20054;-70
2023/06/17 10:53:13;;;;;;;15.98;10.05;;;27.20;74.30;;;;;;4993214;28;20053;-70
2023/06/17 10:55:39;;;;;;;14.20;10.65;;;27.10;74.40;;;;;;4992803;28;20050;-70
2023/06/17 10:58:05;;;;;;;18.83;11.43;;;26.90;74.00;;;;;;5000670;28;20808;-74
2023/06/17 11:00:31;;;;;;;19.63;12.05;;;27.30;74.20;;;;;;5009305;28;20049;-69
2023/06/17 11:02:56;;;;;;;21.60;11.52;;;27.50;74.30;;;;;;5009160;28;20042;-66
2023/06/17 11:05:23;;;;;;;19.70;11.55;;;27.40;74.30;;;;;;5009924;28;20057;-64
2023/06/17 11:07:49;;;;;;;20.30;12.23;;;27.00;74.10;;;;;;5005732;28;20070;-63
2023/06/17 11:10:16;;;;;;;20.70;11.88;;;27.30;74.00;;;;;;5007569;28;20531;-64
2023/06/17 11:12:46;;;;;;;16.40;10.95;;;27.30;74.30;;;;;;5012231;28;20064;-73
2023/06/17 11:15:11;;;;;;;19.60;12.40;;;27.40;74.70;;;;;;5001083;28;20420;-63
2023/06/17 11:17:37;;;;;;;18.45;11.73;;;27.40;74.30;;;;;;4992374;28;20047;-62
2023/06/17 11:20:07;;;;;;;14.95;10.88;;;27.20;74.20;;;;;;5006242;28;20056;-69
2023/06/17 11:22:39;;;;;;;19.52;11.38;;;27.30;74.00;;;;;;5011439;28;20037;-79
2023/06/17 11:25:05;;;;;;;17.90;11.23;;;27.40;74.80;;;;;;5007060;28;20042;-76
2023/06/17 11:27:31;;;;;;;20.35;11.82;;;27.30;73.70;;;;;;5010553;28;20044;-79
2023/06/17 11:29:57;;;;;;;17.80;12.65;;;27.10;73.90;;;;;;5009717;28;20128;-69
2023/06/17 11:32:23;;;;;;;20.52;12.05;;;27.70;74.40;;;;;;5008174;28;20107;-68
2023/06/17 11:34:51;;;;;;;19.38;11.25;;;27.50;74.30;;;;;;5013342;28;20073;-62
2023/06/17 11:37:17;;;;;;;21.75;11.68;;;27.80;74.50;;;;;;5011797;28;20985;-63
2023/06/17 11:39:42;;;;;;;23.23;11.70;;;27.70;74.40;;;;;;5010569;28;20121;-63
2023/06/17 11:42:09;;;;;;;24.30;13.45;;;27.70;74.30;;;;;;5011354;28;20038;-61
2023/06/17 11:44:35;;;;;;;20.23;12.23;;;27.50;74.10;;;;;;5013626;28;20057;-62
2023/06/17 11:47:08;;;;;;;21.23;11.95;;;27.30;73.90;;;;;;5012976;28;20435;-65
2023/06/17 11:49:34;;;;;;;21.23;12.05;;;27.80;74.70;;;;;;5008278;28;20121;-60
2023/06/17 11:52:08;;;;;;;18.63;11.73;;;27.70;74.30;;;;;;5014969;28;20381;-61
2023/06/17 11:54:35;;;;;;;15.52;11.05;;;27.60;74.40;;;;;;5011578;28;20048;-61
2023/06/17 11:57:02;;;;;;;18.27;12.55;;;27.50;74.10;;;;;;5010489;28;20050;-73
2023/06/17 11:59:30;;;;;;;18.00;12.32;;;27.80;74.40;;;;;;5012010;28;20060;-72
2023/06/17 12:01:56;;;;;;;15.38;11.05;;;27.70;74.60;;;;;;5011068;28;20042;-67
2023/06/17 12:04:22;;;;;;;19.55;11.60;;;27.90;74.50;;;;;;5012924;28;20071;-62
2023/06/17 12:06:48;;;;;;;15.48;11.50;;;27.60;74.00;;;;;;5011598;28;20054;-76
2023/06/17 12:09:15;;;;;;;20.63;12.15;;;27.80;74.20;;;;;;5011207;28;20450;-63
2023/06/17 12:11:43;;;;;;;18.98;10.77;;;27.90;74.60;;;;;;5011113;28;20038;-65
2023/06/17 12:14:10;;;;;;;19.02;11.60;;;27.80;74.70;;;;;;5012747;28;20045;-79
2023/06/17 12:16:37;;;;;;;19.23;11.93;;;27.70;74.70;;;;;;5007656;28;20500;-66
2023/06/17 12:19:06;;;;;;;16.55;11.10;;;27.70;74.70;;;;;;5011827;28;20049;-75
2023/06/17 12:21:32;;;;;;;15.85;10.88;;;27.70;74.80;;;;;;5012035;28;20049;-69
2023/06/17 12:23:58;;;;;;;17.52;11.77;;;27.80;74.60;;;;;;5014312;28;20395;-60
2023/06/17 12:26:25;;;;;;;18.15;11.18;;;27.60;74.30;;;;;;5014011;28;20041;-78
2023/06/17 12:28:54;;;;;;;16.30;10.82;;;27.80;74.80;;;;;;5013745;28;20488;-72
2023/06/17 12:31:21;;;;;;;20.00;11.10;;;27.90;74.60;;;;;;5011838;28;20061;-67
2023/06/17 12:33:47;;;;;;;16.42;10.60;;;28.00;74.90;;;;;;5012276;28;20399;-66